createdAt,value
2022-11-26T00:00:06.245Z,10.97
2022-11-26T00:05:15.799Z,8.17
2022-11-26T00:10:27.322Z,10.60
2022-11-26T00:15:33.664Z,13.97
2022-11-26T00:20:38.927Z,12.47
2022-11-26T00:25:49.818Z,9.83
2022-11-26T00:30:56.350Z,10.53
2022-11-26T00:36:07.256Z,12.97
2022-11-26T00:41:16.177Z,13.37
2022-11-26T00:46:22.980Z,12.07
2022-11-26T00:51:29.395Z,9.93
2022-11-26T00:56:38.163Z,10.00
2022-11-26T01:01:43.150Z,10.73
2022-11-26T01:06:48.518Z,11.43
2022-11-26T01:11:54.609Z,7.77
2022-11-26T01:17:02.320Z,8.87
2022-11-26T01:22:07.525Z,9.03
2022-11-26T01:27:14.427Z,8.67
2022-11-26T01:32:23.155Z,8.43
2022-11-26T01:37:27.365Z,6.77
2022-11-26T01:42:48.336Z,8.67
2022-11-26T01:47:53.416Z,8.40
2022-11-26T01:53:01.818Z,9.87
2022-11-26T01:58:10.994Z,8.20
2022-11-26T02:03:16.312Z,8.47
2022-11-26T02:08:21.909Z,10.83
2022-11-26T02:13:27.676Z,6.73
2022-11-26T02:18:35.822Z,9.30
2022-11-26T02:23:52.739Z,8.90
2022-11-26T02:29:17.134Z,8.57
2022-11-26T02:34:43.671Z,7.83
2022-11-26T02:39:49.507Z,7.47
2022-11-26T02:44:58.077Z,8.30
2022-11-26T02:50:06.289Z,6.17
2022-11-26T02:55:13.990Z,7.40
2022-11-26T03:00:20.142Z,6.27
2022-11-26T03:05:25.382Z,6.57
2022-11-26T03:10:32.660Z,6.10
2022-11-26T03:15:37.832Z,8.17
2022-11-26T03:20:43.670Z,7.70
2022-11-26T03:25:48.857Z,8.93
2022-11-26T03:30:54.879Z,7.53
2022-11-26T03:36:00.085Z,9.07
2022-11-26T03:41:05.738Z,8.53
2022-11-26T03:46:11.210Z,8.27
2022-11-26T03:51:16.294Z,8.53
2022-11-26T03:56:21.464Z,7.60
2022-11-26T04:01:26.841Z,6.53
2022-11-26T04:06:32.033Z,6.27
2022-11-26T04:11:37.719Z,6.83
2022-11-26T04:16:43.026Z,6.80
2022-11-26T04:21:48.484Z,6.83
2022-11-26T04:26:53.948Z,5.83
2022-11-26T04:31:59.144Z,7.90
2022-11-26T04:37:04.272Z,5.80
2022-11-26T04:42:09.573Z,4.43
2022-11-26T04:47:16.300Z,7.87
2022-11-26T04:52:21.553Z,7.50
2022-11-26T04:57:26.746Z,9.57
2022-11-26T05:02:32.022Z,7.27
2022-11-26T05:07:37.358Z,5.40
2022-11-26T05:12:42.702Z,8.57
2022-11-26T05:17:48.393Z,6.00
2022-11-26T05:22:53.497Z,7.93
2022-11-26T05:27:58.612Z,7.60
2022-11-26T05:33:03.783Z,8.40
2022-11-26T05:38:08.949Z,9.40
2022-11-26T05:43:14.224Z,9.07
2022-11-26T05:48:19.709Z,6.73
2022-11-26T05:53:24.844Z,9.00
2022-11-26T05:58:29.917Z,7.20
2022-11-26T06:03:35.177Z,9.33
2022-11-26T06:08:40.759Z,9.67
2022-11-26T06:13:45.942Z,6.73
2022-11-26T06:19:01.506Z,6.77
2022-11-26T06:24:08.418Z,5.97
2022-11-26T06:34:54.166Z,10.27
2022-11-26T06:40:02.635Z,4.30
2022-11-26T06:45:14.534Z,7.93
2022-11-26T06:50:29.888Z,6.77
2022-11-26T06:55:35.341Z,6.00
2022-11-26T07:00:43.236Z,5.23
2022-11-26T07:06:01.241Z,6.90
2022-11-26T07:11:06.568Z,6.67
2022-11-26T07:16:12.339Z,9.27
2022-11-26T07:21:18.313Z,8.43
2022-11-26T07:26:25.010Z,6.03
2022-11-26T07:31:33.080Z,7.37
2022-11-26T07:36:40.252Z,7.30
2022-11-26T07:41:45.629Z,9.33
2022-11-26T07:46:50.967Z,9.10
2022-11-26T07:51:59.434Z,8.33
2022-11-26T07:57:21.279Z,8.47
2022-11-26T08:02:31.528Z,7.73
2022-11-26T08:07:45.874Z,9.13
2022-11-26T08:12:53.978Z,8.57
2022-11-26T08:18:05.170Z,9.67
2022-11-26T08:23:11.030Z,11.33
2022-11-26T08:28:26.422Z,10.83
2022-11-26T08:33:31.823Z,7.97
2022-11-26T08:38:38.484Z,12.10
2022-11-26T08:48:52.220Z,10.43
2022-11-26T08:53:57.848Z,13.47
2022-11-26T08:59:03.762Z,8.77
2022-11-26T09:04:09.077Z,13.87
2022-11-26T09:09:18.430Z,13.07
2022-11-26T09:14:28.331Z,11.83
2022-11-26T09:19:34.349Z,9.40
2022-11-26T09:24:45.214Z,11.00
2022-11-26T09:29:58.937Z,17.93
2022-11-26T09:41:18.755Z,11.37
2022-11-26T09:46:41.000Z,10.87
2022-11-26T09:51:50.785Z,11.23
2022-11-26T09:57:20.416Z,12.50
2022-11-26T10:02:46.454Z,12.40
2022-11-26T10:14:17.824Z,13.07
2022-11-26T10:19:47.013Z,15.13
2022-11-26T10:24:52.185Z,8.00
2022-11-26T10:30:03.536Z,11.57
2022-11-26T10:35:38.203Z,9.70
2022-11-26T10:46:44.138Z,8.83
2022-11-26T10:51:55.708Z,12.33
2022-11-26T11:03:11.623Z,10.83
2022-11-26T11:08:42.157Z,9.00
2022-11-26T11:13:50.598Z,10.20
2022-11-26T11:25:01.020Z,15.80
2022-11-26T11:30:10.946Z,14.87
2022-11-26T11:35:36.729Z,13.27
2022-11-26T11:40:48.566Z,9.73
2022-11-26T11:46:22.899Z,11.87
2022-11-26T11:51:49.580Z,13.30
2022-11-26T12:14:31.717Z,11.60
2022-11-26T12:20:05.909Z,13.70
2022-11-26T12:25:36.604Z,11.67
2022-11-26T12:30:51.612Z,10.50
2022-11-26T12:36:01.883Z,11.57
2022-11-26T12:47:31.179Z,13.47
2022-11-26T12:53:20.014Z,14.60
2022-11-26T12:58:42.596Z,15.90
2022-11-26T13:04:36.083Z,15.37
2022-11-26T13:27:50.013Z,20.27
2022-11-26T13:33:26.445Z,23.00
2022-11-26T13:45:08.347Z,16.50
2022-11-26T13:56:37.566Z,14.80
2022-11-26T14:01:51.305Z,16.97
2022-11-26T14:07:22.411Z,19.33
2022-11-26T14:13:10.649Z,17.30
2022-11-26T14:24:37.370Z,18.87
2022-11-26T14:35:53.920Z,20.77
2022-11-26T14:47:43.216Z,15.73
2022-11-26T14:58:57.363Z,15.10
2022-11-26T15:10:44.708Z,15.13
2022-11-26T15:15:59.514Z,12.97
2022-11-26T15:21:06.746Z,14.80
2022-11-26T15:26:19.481Z,12.97
2022-11-26T15:31:32.108Z,12.30
2022-11-26T15:36:41.061Z,11.87
2022-11-26T15:41:49.770Z,14.57
2022-11-26T15:47:05.615Z,16.50
2022-11-26T15:52:20.070Z,14.80
2022-11-26T15:57:41.711Z,16.53
2022-11-26T16:02:56.826Z,13.73
2022-11-26T16:08:07.852Z,15.60
2022-11-26T16:13:29.052Z,12.47
2022-11-26T16:18:46.031Z,11.23
2022-11-26T16:24:00.497Z,16.67
2022-11-26T16:29:08.854Z,13.57
2022-11-26T16:34:22.189Z,10.00
2022-11-26T16:45:04.539Z,10.27
2022-11-26T16:50:28.587Z,13.03
2022-11-26T16:55:33.938Z,10.23
2022-11-26T17:00:39.914Z,14.03
2022-11-26T17:05:45.324Z,10.30
2022-11-26T17:10:52.307Z,14.47
2022-11-26T17:16:17.679Z,8.73
2022-11-26T17:21:23.186Z,10.30
2022-11-26T17:26:30.660Z,9.83
2022-11-26T17:31:36.096Z,10.93
2022-11-26T17:36:49.958Z,10.83
2022-11-26T17:41:56.799Z,10.20
2022-11-26T17:47:16.985Z,12.93
2022-11-26T17:52:10.278Z,9.50
2022-11-26T17:57:17.393Z,9.93
2022-11-26T18:02:22.880Z,7.73
2022-11-26T18:07:28.593Z,7.47
2022-11-26T18:12:34.106Z,9.63
2022-11-26T18:17:39.611Z,8.47
2022-11-26T18:22:48.295Z,10.97
2022-11-26T18:27:53.727Z,8.73
2022-11-26T18:33:02.183Z,9.23
2022-11-26T18:38:09.301Z,9.80
2022-11-26T18:43:18.145Z,8.57
2022-11-26T18:54:12.525Z,6.63
2022-11-26T18:59:20.435Z,7.57
2022-11-26T19:04:35.795Z,9.27
2022-11-26T19:09:44.975Z,11.33
2022-11-26T19:14:50.769Z,9.37
2022-11-26T19:20:07.460Z,9.63
2022-11-26T19:25:15.562Z,9.27
2022-11-26T19:30:36.911Z,6.70
2022-11-26T19:35:49.386Z,11.77
2022-11-26T19:41:02.331Z,11.43
2022-11-26T19:46:12.419Z,12.07
2022-11-26T19:51:23.359Z,8.53
2022-11-26T19:56:32.310Z,8.67
2022-11-26T20:01:42.429Z,9.37
2022-11-26T20:06:57.799Z,12.10
2022-11-26T20:12:09.298Z,11.27
2022-11-26T20:17:15.312Z,9.37
2022-11-26T20:22:21.903Z,10.00
2022-11-26T20:27:30.160Z,8.00
2022-11-26T20:32:38.478Z,7.77
2022-11-26T20:37:47.831Z,9.77
2022-11-26T20:42:58.161Z,8.67
2022-11-26T20:48:10.207Z,8.43
2022-11-26T20:58:50.363Z,7.87
2022-11-26T21:03:57.017Z,9.60
2022-11-26T21:09:04.273Z,10.07
2022-11-26T21:14:14.618Z,10.60
2022-11-26T21:19:16.775Z,8.63
2022-11-26T21:24:22.405Z,8.50
2022-11-26T21:29:27.887Z,9.00
2022-11-26T21:34:33.731Z,9.17
2022-11-26T21:39:39.680Z,8.73
2022-11-26T21:44:47.403Z,10.03
2022-11-26T21:49:52.584Z,9.47
2022-11-26T21:55:02.288Z,7.53
2022-11-26T22:00:06.590Z,8.87
2022-11-26T22:05:11.942Z,10.03
2022-11-26T22:10:17.339Z,10.87
2022-11-26T22:15:22.680Z,10.97
2022-11-26T22:20:28.030Z,8.57
2022-11-26T22:25:36.430Z,8.83
2022-11-26T22:30:43.315Z,12.37
2022-11-26T22:35:48.628Z,11.17
2022-11-26T22:40:53.895Z,8.37
2022-11-26T22:45:59.386Z,11.07
2022-11-26T22:51:05.330Z,12.60
2022-11-26T22:56:10.674Z,8.73
2022-11-26T23:01:24.546Z,10.07
2022-11-26T23:06:32.268Z,9.23
2022-11-26T23:11:42.641Z,9.80
2022-11-26T23:16:48.353Z,11.13
2022-11-26T23:21:53.654Z,9.23
2022-11-26T23:26:59.252Z,10.77
2022-11-26T23:32:04.541Z,10.87
2022-11-26T23:37:09.783Z,9.33
2022-11-26T23:42:15.016Z,11.17
2022-11-26T23:47:20.397Z,10.63
2022-11-26T23:52:25.793Z,11.77
2022-11-26T23:57:31.297Z,11.83
